Time;durP1;ratioP1;P1;durP2;ratioP2;P2;SDS_P1;SDS_P2;PMS_P1;PMS_P2;Temp;Humidity;BMP_temperature;BMP_pressure;BME280_temperature;BME280_humidity;BME280_pressure;Samples;Min_cycle;Max_cycle;Signal;HPM_P1;HPM_P2
2022/12/10 00:00:08;;;;;;;16.00;9.10;;;3.80;1.00;;;;;;5092427;28;20448;-75
2022/12/10 00:02:35;;;;;;;30.33;9.03;;;3.80;99.90;;;;;;5092999;28;20452;-75
2022/12/10 00:05:03;;;;;;;10.77;8.17;;;3.80;99.90;;;;;;5091801;28;20461;-76
2022/12/10 00:07:30;;;;;;;19.80;9.67;;;3.90;99.90;;;;;;5092782;28;20448;-75
2022/12/10 00:09:56;;;;;;;13.37;8.10;;;3.70;90.80;;;;;;5078308;28;20463;-75
2022/12/10 00:12:23;;;;;;;14.40;8.20;;;3.70;99.90;;;;;;5092740;28;20454;-75
2022/12/10 00:14:50;;;;;;;14.67;9.23;;;3.80;99.90;;;;;;5091912;28;20457;-75
2022/12/10 00:17:17;;;;;;;16.63;9.53;;;3.80;99.90;;;;;;5092181;28;20497;-75
2022/12/10 00:19:44;;;;;;;18.17;9.93;;;3.70;99.90;;;;;;5092697;28;20450;-75
2022/12/10 00:22:12;;;;;;;11.13;7.57;;;3.80;24.50;;;;;;5092588;28;20451;-75
2022/12/10 00:24:39;;;;;;;15.90;9.53;;;3.80;99.90;;;;;;5092451;28;20464;-74
2022/12/10 00:27:06;;;;;;;12.47;7.33;;;3.80;1.00;;;;;;5090641;28;20461;-75
2022/12/10 00:29:33;;;;;;;16.57;7.57;;;3.80;1.00;;;;;;5092346;28;20451;-75
2022/12/10 00:32:00;;;;;;;13.87;7.27;;;3.80;1.00;;;;;;5090875;28;20459;-75
2022/12/10 00:34:26;;;;;;;20.33;11.00;;;3.80;1.00;;;;;;5091850;28;20444;-75
2022/12/10 00:36:53;;;;;;;14.57;7.37;;;3.80;1.00;;;;;;5090298;28;20480;-74
2022/12/10 00:39:22;;;;;;;16.00;8.80;;;3.80;1.00;;;;;;5091854;28;20455;-75
2022/12/10 00:41:49;;;;;;;18.00;9.23;;;3.70;99.90;;;;;;5091196;28;20459;-69
2022/12/10 00:44:16;;;;;;;14.77;8.97;;;3.60;1.00;;;;;;5091785;28;20441;-73
2022/12/10 00:46:44;;;;;;;15.37;7.37;;;3.50;99.90;;;;;;5091693;28;20471;-75
2022/12/10 00:49:11;;;;;;;17.40;8.90;;;3.50;99.90;;;;;;5091802;28;20498;-75
2022/12/10 00:51:38;;;;;;;13.20;7.60;;;3.60;1.00;;;;;;5091590;28;20445;-74
2022/12/10 00:54:06;;;;;;;13.90;8.13;;;3.70;1.00;;;;;;5090976;28;21063;-75
2022/12/10 00:56:34;;;;;;;12.93;8.23;;;3.60;1.00;;;;;;5091486;28;20484;-75
2022/12/10 00:59:02;;;;;;;16.97;8.87;;;3.50;1.00;;;;;;5091279;28;20449;-75
2022/12/10 01:01:31;;;;;;;16.83;10.10;;;3.50;43.70;;;;;;5091858;28;20444;-75
2022/12/10 01:04:00;;;;;;;12.93;8.70;;;3.60;1.00;;;;;;5091019;28;20449;-74
2022/12/10 01:06:30;;;;;;;10.73;6.67;;;3.60;1.00;;;;;;5091028;28;20951;-75
2022/12/10 01:08:59;;;;;;;11.80;7.90;;;3.70;1.00;;;;;;5082050;28;20813;-75
2022/12/10 01:11:28;;;;;;;14.07;7.43;;;3.70;1.00;;;;;;5087252;28;20453;-74
2022/12/10 01:13:57;;;;;;;14.40;7.20;;;3.60;99.90;;;;;;5090810;28;20476;-74
2022/12/10 01:16:24;;;;;;;13.53;9.37;;;3.70;99.90;;;;;;5090808;28;20471;-75
2022/12/10 01:18:54;;;;;;;10.13;6.63;;;3.70;99.90;;;;;;5090806;28;20485;-74
2022/12/10 01:21:21;;;;;;;13.13;9.23;;;3.60;99.90;;;;;;5091624;28;20494;-74
2022/12/10 01:23:49;;;;;;;13.93;8.63;;;3.60;99.90;;;;;;5090658;28;20459;-74
2022/12/10 01:26:18;;;;;;;14.40;10.17;;;3.70;99.90;;;;;;5090729;28;20453;-74
2022/12/10 01:28:45;;;;;;;11.83;6.80;;;3.60;99.90;;;;;;5090917;28;20452;-69
2022/12/10 01:31:17;;;;;;;9.03;5.67;;;3.60;1.00;;;;;;5090830;28;20445;-75
2022/12/10 01:33:44;;;;;;;18.10;8.33;;;3.60;1.00;;;;;;5090817;28;20513;-75
2022/12/10 01:36:12;;;;;;;13.53;8.67;;;3.70;90.70;;;;;;5089980;28;20850;-74
2022/12/10 01:38:42;;;;;;;11.40;8.03;;;3.70;1.00;;;;;;5090586;28;20452;-73
2022/12/10 01:41:15;;;;;;;13.13;7.93;;;3.70;60.10;;;;;;5090058;28;20459;-74
2022/12/10 01:43:57;;;;;;;14.60;10.40;;;3.70;1.00;;;;;;5091116;28;20803;-75
2022/12/10 01:46:28;;;;;;;12.57;8.07;;;3.70;1.00;;;;;;5090563;28;20505;-75
2022/12/10 01:48:55;;;;;;;10.10;8.87;;;3.60;1.00;;;;;;5089888;28;20479;-74
2022/12/10 01:51:24;;;;;;;11.97;7.93;;;3.50;1.00;;;;;;5090990;28;20460;-74
2022/12/10 01:53:51;;;;;;;16.57;8.80;;;3.50;99.90;;;;;;5090289;28;20452;-73
2022/12/10 01:56:19;;;;;;;17.33;9.07;;;3.50;1.00;;;;;;5090145;28;20484;-75
2022/12/10 01:58:47;;;;;;;16.87;7.00;;;3.60;1.00;;;;;;5090045;28;20457;-74
2022/12/10 02:01:21;;;;;;;12.57;6.83;;;3.50;1.00;;;;;;5090964;28;20440;-75
2022/12/10 02:03:57;;;;;;;14.73;8.13;;;3.40;13.20;;;;;;5090429;28;20537;-74
2022/12/10 02:06:36;;;;;;;12.20;6.37;;;3.50;99.90;;;;;;5090240;28;20448;-75
2022/12/10 02:09:12;;;;;;;11.23;7.07;;;3.40;1.00;;;;;;5080136;28;20505;-75
2022/12/10 02:11:46;;;;;;;13.17;8.60;;;3.60;13.30;;;;;;5088053;28;20444;-75
2022/12/10 02:14:18;;;;;;;13.30;7.47;;;3.60;1.00;;;;;;5090628;28;20440;-74
2022/12/10 02:16:52;;;;;;;13.40;7.43;;;3.60;1.00;;;;;;5090099;28;20471;-70
2022/12/10 02:19:29;;;;;;;10.20;7.13;;;3.60;1.00;;;;;;5090869;28;20809;-75
2022/12/10 02:21:58;;;;;;;15.40;7.50;;;3.60;1.00;;;;;;5090208;28;20785;-74
2022/12/10 02:24:30;;;;;;;14.10;7.87;;;3.70;99.90;;;;;;5090380;28;20454;-75
2022/12/10 02:27:05;;;;;;;10.03;7.30;;;3.70;1.00;;;;;;5089805;28;20448;-74
2022/12/10 02:29:35;;;;;;;11.53;6.83;;;3.70;99.90;;;;;;5090387;28;20448;-75
2022/12/10 02:32:04;;;;;;;14.37;7.77;;;3.40;99.90;;;;;;5089428;28;20446;-75
2022/12/10 02:34:34;;;;;;;14.20;9.70;;;3.60;19.90;;;;;;5089681;28;20440;-73
2022/12/10 02:37:05;;;;;;;13.83;7.77;;;3.60;1.00;;;;;;5089314;28;20488;-74
2022/12/10 02:39:37;;;;;;;10.50;6.90;;;3.60;1.00;;;;;;5090154;28;20452;-75
2022/12/10 02:42:07;;;;;;;12.03;8.77;;;3.60;1.00;;;;;;5089786;28;20449;-75
2022/12/10 02:44:38;;;;;;;16.70;8.77;;;3.70;99.90;;;;;;5090028;28;20798;-73
2022/12/10 02:47:07;;;;;;;13.13;6.80;;;3.60;1.00;;;;;;5089984;28;20728;-74
2022/12/10 02:49:35;;;;;;;13.17;7.43;;;3.60;1.00;;;;;;5090535;28;20481;-74
2022/12/10 02:52:08;;;;;;;14.03;8.23;;;3.60;1.00;;;;;;5089906;28;20446;-74
2022/12/10 02:54:39;;;;;;;15.57;8.97;;;3.70;99.90;;;;;;5090187;28;20449;-75
2022/12/10 02:57:19;;;;;;;11.37;7.40;;;3.60;1.00;;;;;;5089667;28;20978;-74
2022/12/10 03:00:05;;;;;;;11.03;8.40;;;3.50;1.00;;;;;;5091673;28;20538;-69
2022/12/10 03:02:40;;;;;;;11.77;7.40;;;3.50;1.20;;;;;;5093776;28;20435;-74
2022/12/10 03:05:14;;;;;;;11.57;7.20;;;3.50;1.00;;;;;;5092632;28;20444;-75
2022/12/10 03:07:47;;;;;;;9.97;6.90;;;3.50;1.00;;;;;;5093793;28;20455;-75
2022/12/10 03:10:23;;;;;;;14.43;7.10;;;3.50;99.90;;;;;;5080067;28;20456;-73
2022/12/10 03:12:54;;;;;;;11.30;8.20;;;3.50;99.90;;;;;;5093247;28;20453;-74
2022/12/10 03:15:24;;;;;;;13.07;7.47;;;3.50;99.90;;;;;;5093178;28;20445;-74
2022/12/10 03:17:52;;;;;;;20.23;8.30;;;3.50;99.90;;;;;;5093377;28;20493;-74
2022/12/10 03:20:19;;;;;;;12.30;7.20;;;3.50;1.00;;;;;;5093675;28;20447;-74
2022/12/10 03:22:49;;;;;;;10.87;7.50;;;3.60;1.00;;;;;;5093050;28;20451;-70
2022/12/10 03:25:20;;;;;;;13.13;6.90;;;3.40;1.00;;;;;;5092590;28;20458;-74
2022/12/10 03:27:50;;;;;;;14.57;7.43;;;3.50;1.00;;;;;;5093134;28;20566;-70
2022/12/10 03:30:17;;;;;;;13.20;7.73;;;3.40;1.00;;;;;;5093251;28;20449;-74
2022/12/10 03:32:47;;;;;;;13.57;8.33;;;3.40;99.90;;;;;;5093480;28;20450;-75
2022/12/10 03:35:15;;;;;;;15.63;7.73;;;3.40;99.90;;;;;;5093393;28;20473;-75
2022/12/10 03:37:42;;;;;;;16.40;7.23;;;3.50;99.90;;;;;;5093410;28;20491;-74
2022/12/10 03:40:11;;;;;;;15.17;8.30;;;3.50;15.00;;;;;;5092530;28;20458;-75
2022/12/10 03:42:38;;;;;;;15.20;8.03;;;3.60;1.00;;;;;;5093174;28;20451;-75
2022/12/10 03:45:07;;;;;;;13.83;8.87;;;3.60;99.90;;;;;;5092058;28;20779;-74
2022/12/10 03:47:34;;;;;;;11.70;7.43;;;3.60;1.00;;;;;;5093174;28;20452;-75
2022/12/10 03:50:02;;;;;;;15.33;7.40;;;3.60;99.90;;;;;;5092202;28;20483;-75
2022/12/10 03:52:29;;;;;;;14.30;7.97;;;3.60;1.00;;;;;;5093071;28;20941;-75
2022/12/10 03:54:56;;;;;;;14.57;7.67;;;3.70;99.90;;;;;;5092065;28;20445;-75
2022/12/10 03:57:23;;;;;;;11.10;8.20;;;3.60;99.90;;;;;;5093157;28;20500;-74
2022/12/10 03:59:50;;;;;;;13.00;6.70;;;3.70;99.90;;;;;;5092177;28;20931;-74
2022/12/10 04:02:16;;;;;;;11.40;5.80;;;3.70;99.90;;;;;;5092903;28;20449;-74
2022/12/10 04:04:43;;;;;;;8.80;6.40;;;3.60;1.00;;;;;;5092851;28;20445;-75
2022/12/10 04:07:12;;;;;;;11.20;6.80;;;3.70;1.00;;;;;;5092668;28;20773;-74
2022/12/10 04:09:39;;;;;;;10.40;5.97;;;3.70;1.00;;;;;;5078799;28;20459;-74
2022/12/10 04:12:06;;;;;;;10.90;7.10;;;3.60;1.00;;;;;;5091769;28;20700;-74
2022/12/10 04:17:17;;;;;;;11.03;6.40;;;3.60;87.50;;;;;;5092068;28;20495;-74
2022/12/10 04:19:44;;;;;;;14.80;7.37;;;3.50;99.90;;;;;;5092278;28;20532;-75
2022/12/10 04:27:49;;;;;;;8.83;6.93;;;3.40;1.00;;;;;;5080675;28;20441;-69
2022/12/10 04:30:16;;;;;;;12.73;6.13;;;3.30;1.00;;;;;;5091784;28;20452;-73
2022/12/10 04:32:42;;;;;;;10.57;6.70;;;3.30;1.00;;;;;;5092101;28;21086;-74
2022/12/10 04:35:10;;;;;;;13.83;7.97;;;3.30;1.00;;;;;;5091074;28;20450;-74
2022/12/10 04:37:38;;;;;;;15.63;6.10;;;3.40;1.00;;;;;;5092067;28;20498;-74
2022/12/10 04:40:06;;;;;;;10.43;6.40;;;3.10;1.00;;;;;;5091690;28;20719;-74
2022/12/10 04:42:33;;;;;;;13.30;7.60;;;3.20;99.90;;;;;;5092364;28;20452;-74
2022/12/10 04:45:00;;;;;;;14.63;7.87;;;3.20;99.90;;;;;;5090889;28;20437;-74
2022/12/10 04:47:27;;;;;;;13.37;7.13;;;3.20;1.00;;;;;;5092137;28;20463;-74
2022/12/10 04:49:54;;;;;;;10.20;7.10;;;3.30;93.20;;;;;;5091437;28;20480;-74
2022/12/10 04:52:21;;;;;;;12.10;7.63;;;3.30;1.00;;;;;;5091817;28;20452;-74
2022/12/10 04:54:49;;;;;;;14.10;9.03;;;3.30;1.00;;;;;;5090889;28;20477;-74
2022/12/10 04:57:16;;;;;;;16.30;8.93;;;3.40;1.00;;;;;;5091772;28;20484;-72
2022/12/10 04:59:43;;;;;;;9.63;6.60;;;3.30;1.00;;;;;;5092054;28;20798;-74
2022/12/10 05:02:10;;;;;;;11.20;6.73;;;3.20;1.00;;;;;;5091189;28;20542;-74
2022/12/10 05:04:37;;;;;;;14.90;7.23;;;3.30;2.50;;;;;;5091007;28;20999;-74
2022/12/10 05:07:04;;;;;;;12.00;7.70;;;3.30;7.70;;;;;;5091094;28;20462;-74
2022/12/10 05:09:30;;;;;;;18.40;7.20;;;3.30;99.90;;;;;;5077641;28;20455;-74
2022/12/10 05:11:59;;;;;;;14.00;9.87;;;3.30;99.90;;;;;;5090542;28;20453;-74
2022/12/10 05:14:26;;;;;;;13.40;7.40;;;3.30;99.90;;;;;;5090861;28;20455;-74
2022/12/10 05:16:53;;;;;;;13.27;7.60;;;3.30;99.90;;;;;;5090129;28;20451;-74
2022/12/10 05:19:21;;;;;;;15.17;10.40;;;3.40;99.90;;;;;;5090735;28;20453;-74
2022/12/10 05:24:33;;;;;;;12.23;7.60;;;3.30;99.90;;;;;;5079241;28;20425;-74
2022/12/10 05:27:01;;;;;;;18.63;10.03;;;3.40;99.90;;;;;;5090220;28;20451;-73
2022/12/10 05:29:28;;;;;;;13.80;8.27;;;3.30;99.90;;;;;;5091104;28;20452;-74
2022/12/10 05:31:55;;;;;;;14.30;8.10;;;3.30;1.00;;;;;;5090112;28;20446;-73
2022/12/10 05:34:22;;;;;;;13.47;7.57;;;3.10;99.90;;;;;;5090101;28;20907;-74
2022/12/10 05:36:48;;;;;;;10.87;8.23;;;3.20;99.90;;;;;;5090148;28;20477;-69
2022/12/10 05:39:15;;;;;;;10.77;9.40;;;3.20;99.90;;;;;;5090661;28;20925;-72
2022/12/10 05:41:43;;;;;;;16.67;9.50;;;3.10;99.90;;;;;;5091272;28;20452;-74
2022/12/10 05:44:12;;;;;;;10.77;8.07;;;3.10;99.90;;;;;;5091052;28;20464;-72
2022/12/10 05:46:39;;;;;;;15.10;7.87;;;3.10;99.90;;;;;;5090724;28;20449;-74
2022/12/10 05:49:07;;;;;;;16.80;8.23;;;3.00;1.00;;;;;;5090012;28;20760;-74
2022/12/10 05:51:36;;;;;;;9.60;6.77;;;3.00;1.00;;;;;;5090667;28;20539;-74
2022/12/10 05:54:04;;;;;;;13.40;7.00;;;3.10;99.90;;;;;;5089926;28;20460;-74
2022/12/10 05:56:31;;;;;;;18.50;10.63;;;3.00;1.00;;;;;;5090563;28;20455;-75
2022/12/10 05:59:01;;;;;;;10.90;6.83;;;2.90;1.00;;;;;;5089954;28;20477;-74
2022/12/10 06:01:32;;;;;;;15.80;8.80;;;3.00;1.00;;;;;;5091015;28;20823;-74
2022/12/10 06:04:00;;;;;;;12.53;7.00;;;3.00;1.00;;;;;;5090608;28;20798;-73
2022/12/10 06:06:29;;;;;;;8.13;6.60;;;3.10;1.00;;;;;;5090581;28;20443;-74
2022/12/10 06:08:57;;;;;;;18.57;9.20;;;3.10;1.00;;;;;;5081291;28;20460;-74
2022/12/10 06:11:26;;;;;;;14.93;7.87;;;3.00;1.00;;;;;;5086263;28;20452;-73
2022/12/10 06:13:53;;;;;;;16.27;8.70;;;3.00;1.00;;;;;;5090055;28;20452;-73
2022/12/10 06:16:19;;;;;;;16.63;7.33;;;2.90;99.90;;;;;;5090269;28;20453;-73
2022/12/10 06:18:48;;;;;;;21.47;9.90;;;2.90;1.00;;;;;;5090612;28;20492;-69
2022/12/10 06:21:16;;;;;;;10.27;5.87;;;3.00;1.00;;;;;;5091244;28;20454;-73
2022/12/10 06:23:43;;;;;;;8.03;5.97;;;3.00;99.90;;;;;;5090912;28;20454;-74
2022/12/10 06:26:12;;;;;;;15.27;8.57;;;3.00;99.90;;;;;;5089817;28;20487;-74
2022/12/10 06:28:39;;;;;;;8.80;6.13;;;3.10;99.90;;;;;;5090400;28;20926;-73
2022/12/10 06:31:06;;;;;;;15.87;7.47;;;3.10;99.90;;;;;;5089921;28;20715;-74
2022/12/10 06:33:33;;;;;;;10.37;6.97;;;3.10;99.90;;;;;;5092008;28;20455;-74
2022/12/10 06:36:04;;;;;;;18.73;8.90;;;2.80;99.90;;;;;;5094321;28;20445;-74
2022/12/10 06:38:31;;;;;;;13.60;7.23;;;2.90;99.90;;;;;;5094678;28;20523;-74
2022/12/10 06:40:58;;;;;;;10.47;7.23;;;3.00;99.90;;;;;;5094470;28;20447;-74
2022/12/10 06:43:25;;;;;;;8.40;7.43;;;3.00;99.90;;;;;;5094829;28;20453;-73
2022/12/10 06:45:52;;;;;;;12.23;7.50;;;3.00;99.90;;;;;;5093961;28;20458;-73
2022/12/10 06:48:18;;;;;;;14.30;8.27;;;3.00;99.90;;;;;;5094353;28;20485;-73
2022/12/10 06:50:46;;;;;;;14.93;8.40;;;2.80;22.60;;;;;;5094875;28;20443;-68
2022/12/10 06:53:14;;;;;;;14.93;7.50;;;2.90;99.90;;;;;;5094878;28;20446;-74
2022/12/10 06:55:41;;;;;;;10.60;5.67;;;2.80;99.90;;;;;;5081721;28;20451;-74
2022/12/10 06:58:07;;;;;;;17.30;9.30;;;2.80;1.00;;;;;;5079409;28;20487;-73
2022/12/10 07:00:34;;;;;;;13.90;8.37;;;2.80;1.00;;;;;;5094688;28;20455;-73
2022/12/10 07:03:01;;;;;;;9.87;6.90;;;2.80;1.00;;;;;;5093718;28;21152;-73
2022/12/10 07:05:28;;;;;;;11.57;6.90;;;2.90;1.00;;;;;;5093900;28;20445;-73
2022/12/10 07:07:54;;;;;;;10.80;7.20;;;2.80;99.90;;;;;;5092808;28;20454;-73
2022/12/10 07:10:23;;;;;;;9.60;6.63;;;2.90;99.90;;;;;;5080144;28;20451;-74
2022/12/10 07:12:49;;;;;;;17.30;11.37;;;2.70;99.90;;;;;;5080080;28;20851;-68
2022/12/10 07:15:16;;;;;;;11.43;6.57;;;2.80;1.00;;;;;;5093560;28;20445;-73
2022/12/10 07:17:43;;;;;;;13.17;7.30;;;3.00;99.90;;;;;;5094067;28;20485;-73
2022/12/10 07:20:11;;;;;;;10.97;6.97;;;2.90;99.90;;;;;;5093195;28;20463;-73
2022/12/10 07:22:38;;;;;;;11.30;6.93;;;2.90;99.90;;;;;;5093923;28;20533;-74
2022/12/10 07:25:06;;;;;;;11.77;6.80;;;2.90;99.90;;;;;;5092045;28;20460;-73
2022/12/10 07:27:34;;;;;;;13.20;8.47;;;3.00;1.00;;;;;;5093676;28;20980;-73
2022/12/10 07:30:00;;;;;;;10.93;6.83;;;3.10;95.80;;;;;;5092875;28;20459;-73
2022/12/10 07:32:28;;;;;;;11.67;7.63;;;2.90;99.90;;;;;;5093793;28;20452;-74
2022/12/10 07:34:54;;;;;;;11.40;8.40;;;2.90;1.00;;;;;;5092773;28;20454;-74
2022/12/10 07:37:21;;;;;;;11.00;7.83;;;2.90;99.90;;;;;;5093619;28;20466;-75
2022/12/10 07:39:48;;;;;;;13.83;7.77;;;2.80;1.00;;;;;;5093174;28;20443;-73
2022/12/10 07:42:15;;;;;;;8.70;7.43;;;2.80;99.90;;;;;;5094096;28;20455;-74
2022/12/10 07:44:43;;;;;;;13.83;7.80;;;2.80;99.90;;;;;;5092457;28;20972;-73
2022/12/10 07:47:10;;;;;;;12.43;8.17;;;2.80;99.90;;;;;;5092930;28;20458;-74
2022/12/10 07:49:36;;;;;;;12.60;7.00;;;2.80;99.90;;;;;;5093553;28;20488;-74
2022/12/10 07:52:03;;;;;;;13.63;8.50;;;2.60;99.90;;;;;;5092838;28;20451;-74
2022/12/10 07:54:30;;;;;;;15.13;7.30;;;3.20;1.00;;;;;;5093090;28;20799;-74
2022/12/10 07:56:57;;;;;;;19.27;8.93;;;4.00;99.90;;;;;;5092982;28;20455;-74
2022/12/10 07:59:24;;;;;;;12.87;8.57;;;3.60;1.00;;;;;;5093234;28;20492;-74
2022/12/10 08:01:52;;;;;;;13.40;8.03;;;3.10;1.00;;;;;;5092834;28;20447;-74
2022/12/10 08:04:19;;;;;;;12.13;9.80;;;3.10;1.00;;;;;;5092492;28;20448;-74
2022/12/10 08:06:47;;;;;;;16.33;8.87;;;3.10;99.90;;;;;;5092959;28;20445;-70
2022/12/10 08:09:14;;;;;;;16.73;8.37;;;3.10;1.00;;;;;;5081909;28;20971;-74
2022/12/10 08:11:40;;;;;;;13.73;7.67;;;3.00;99.90;;;;;;5090441;28;20458;-75
2022/12/10 08:14:07;;;;;;;10.53;6.10;;;3.10;99.90;;;;;;5077632;28;21012;-74
2022/12/10 08:16:34;;;;;;;9.87;7.23;;;2.80;48.10;;;;;;5092815;28;20816;-75
2022/12/10 08:19:03;;;;;;;12.90;7.53;;;2.90;1.00;;;;;;5092012;28;20482;-74
2022/12/10 08:21:31;;;;;;;9.37;6.80;;;3.00;1.00;;;;;;5092797;28;20459;-74
2022/12/10 08:23:59;;;;;;;13.23;7.97;;;3.00;99.90;;;;;;5091216;28;20449;-73
2022/12/10 08:26:28;;;;;;;10.13;7.63;;;3.20;99.90;;;;;;5092753;28;20463;-74
2022/12/10 08:28:56;;;;;;;13.53;7.20;;;3.20;1.00;;;;;;5091779;28;20451;-74
2022/12/10 08:31:24;;;;;;;8.30;6.90;;;3.10;99.90;;;;;;5092730;28;20451;-74
2022/12/10 08:33:51;;;;;;;9.60;7.80;;;3.10;99.90;;;;;;5091525;28;20788;-74
2022/12/10 08:36:20;;;;;;;16.37;8.50;;;3.10;99.90;;;;;;5092172;28;20450;-74
2022/12/10 08:38:47;;;;;;;17.17;7.60;;;3.10;99.90;;;;;;5091816;28;20481;-74
2022/12/10 08:41:16;;;;;;;16.43;8.20;;;3.10;99.90;;;;;;5092831;28;20451;-74
2022/12/10 08:43:43;;;;;;;17.23;7.87;;;3.20;99.90;;;;;;5092750;28;20451;-74
2022/12/10 08:46:11;;;;;;;10.13;7.37;;;3.20;1.00;;;;;;5091711;28;20449;-74
2022/12/10 08:48:38;;;;;;;21.97;8.37;;;3.30;1.00;;;;;;5092326;28;20504;-74
2022/12/10 08:51:06;;;;;;;11.27;8.10;;;3.30;99.90;;;;;;5091795;28;20455;-74
2022/12/10 08:53:35;;;;;;;17.00;8.27;;;3.20;1.00;;;;;;5092359;28;20447;-74
2022/12/10 08:56:03;;;;;;;17.97;9.63;;;3.20;99.90;;;;;;5090691;28;20454;-74
2022/12/10 08:58:29;;;;;;;9.53;6.90;;;3.30;1.00;;;;;;5091741;28;20483;-74
2022/12/10 09:00:56;;;;;;;10.57;8.70;;;3.30;1.00;;;;;;5091597;28;20457;-74
2022/12/10 09:03:23;;;;;;;11.57;6.90;;;3.30;99.90;;;;;;5092048;28;20463;-74
2022/12/10 09:05:50;;;;;;;16.63;8.50;;;3.40;1.00;;;;;;5090674;28;20461;-70
2022/12/10 09:08:17;;;;;;;15.33;8.20;;;3.50;1.00;;;;;;5088359;28;20462;-74
2022/12/10 09:10:45;;;;;;;12.80;8.37;;;3.40;1.00;;;;;;5081459;28;20448;-75
2022/12/10 09:13:12;;;;;;;10.33;7.37;;;3.50;1.00;;;;;;5091057;28;20450;-75
2022/12/10 09:15:40;;;;;;;14.47;8.90;;;3.40;1.00;;;;;;5091315;28;20462;-74
2022/12/10 09:18:06;;;;;;;7.70;6.43;;;3.40;1.00;;;;;;5090505;28;20454;-75
2022/12/10 09:20:33;;;;;;;12.77;7.77;;;3.30;28.00;;;;;;5091646;28;20809;-75
2022/12/10 09:23:00;;;;;;;15.10;9.03;;;3.40;1.00;;;;;;5090875;28;20458;-75
2022/12/10 09:25:27;;;;;;;20.13;9.07;;;3.50;99.90;;;;;;5091065;28;20444;-74
2022/12/10 09:27:55;;;;;;;15.30;9.03;;;3.60;1.00;;;;;;5090860;28;20457;-74
2022/12/10 09:30:22;;;;;;;14.60;8.30;;;3.50;99.90;;;;;;5091027;28;20457;-75
2022/12/10 09:32:49;;;;;;;13.20;8.70;;;3.30;1.00;;;;;;5090921;28;20453;-69
2022/12/10 09:35:16;;;;;;;12.83;7.80;;;3.50;1.00;;;;;;5091164;28;20451;-72
2022/12/10 09:37:43;;;;;;;13.47;7.90;;;3.70;1.00;;;;;;5091605;28;20444;-75
2022/12/10 09:40:15;;;;;;;15.90;8.37;;;3.60;1.00;;;;;;5090419;28;20507;-75
2022/12/10 09:42:49;;;;;;;11.70;8.27;;;3.70;99.90;;;;;;5091793;28;20445;-75
2022/12/10 09:45:26;;;;;;;11.37;7.40;;;3.40;99.90;;;;;;5091211;28;20521;-74
2022/12/10 09:48:02;;;;;;;15.57;8.07;;;3.50;1.00;;;;;;5090639;28;20923;-75
2022/12/10 09:50:36;;;;;;;16.07;8.57;;;3.40;1.00;;;;;;5091321;28;20441;-75
2022/12/10 09:53:05;;;;;;;12.03;7.63;;;3.40;1.00;;;;;;5090897;28;20449;-75
2022/12/10 09:55:37;;;;;;;15.50;7.90;;;3.60;1.00;;;;;;5090697;28;20984;-75
2022/12/10 09:58:06;;;;;;;13.07;7.90;;;3.10;99.90;;;;;;5090836;28;20443;-75
2022/12/10 10:00:36;;;;;;;11.37;7.93;;;;;;;;;;5091374;28;20775;-75
2022/12/10 10:03:06;;;;;;;17.60;8.43;;;2.70;65.90;;;;;;5090488;28;20452;-75
2022/12/10 10:05:36;;;;;;;14.07;7.53;;;3.00;1.00;;;;;;5088738;28;20444;-73
2022/12/10 10:08:06;;;;;;;14.07;7.60;;;3.30;67.90;;;;;;5079363;28;20456;-70
2022/12/10 10:10:35;;;;;;;12.53;8.63;;;3.40;1.00;;;;;;5090694;28;20443;-70
2022/12/10 10:13:15;;;;;;;10.23;7.77;;;3.50;1.00;;;;;;5072014;28;20450;-71
2022/12/10 10:15:46;;;;;;;14.67;8.77;;;3.50;70.10;;;;;;5085916;28;20788;-71
2022/12/10 10:18:19;;;;;;;19.33;10.20;;;3.50;1.00;;;;;;5089182;28;20459;-71
2022/12/10 10:20:46;;;;;;;12.30;8.30;;;3.60;99.90;;;;;;5079272;28;20444;-67
2022/12/10 10:23:16;;;;;;;11.77;8.10;;;3.70;1.00;;;;;;5089004;28;20449;-70
2022/12/10 10:25:43;;;;;;;13.40;8.93;;;3.80;1.00;;;;;;5086947;28;20456;-70
2022/12/10 10:28:13;;;;;;;16.37;7.10;;;3.60;1.00;;;;;;5087618;28;20990;-70
2022/12/10 10:30:45;;;;;;;17.43;7.90;;;3.70;1.00;;;;;;5075034;28;20516;-70
2022/12/10 10:33:14;;;;;;;12.90;7.37;;;3.70;1.00;;;;;;5087972;28;20594;-70
2022/12/10 10:35:46;;;;;;;14.27;7.30;;;3.70;1.00;;;;;;5088048;28;20450;-70
2022/12/10 10:38:22;;;;;;;12.67;7.57;;;3.60;1.00;;;;;;5074375;28;20442;-70
2022/12/10 10:40:53;;;;;;;8.53;6.07;;;3.40;1.00;;;;;;5087716;28;21013;-70
2022/12/10 10:43:23;;;;;;;15.57;7.57;;;3.00;1.00;;;;;;5086443;28;20455;-70
2022/12/10 10:45:54;;;;;;;13.70;8.17;;;3.40;99.90;;;;;;5087508;28;20455;-70
2022/12/10 10:48:23;;;;;;;15.07;8.13;;;3.50;99.90;;;;;;5087982;28;20480;-70
2022/12/10 10:50:52;;;;;;;15.73;9.20;;;3.60;1.00;;;;;;5087919;28;20455;-70
2022/12/10 10:53:30;;;;;;;13.87;7.80;;;3.20;99.90;;;;;;5074611;28;20451;-70
2022/12/10 10:56:05;;;;;;;11.17;8.47;;;3.20;1.00;;;;;;5082384;28;20479;-70
2022/12/10 10:58:33;;;;;;;10.57;7.90;;;3.30;1.00;;;;;;5088305;28;20453;-70
2022/12/10 11:01:04;;;;;;;9.37;6.10;;;3.00;1.00;;;;;;5087345;28;20580;-69
2022/12/10 11:03:33;;;;;;;17.17;7.43;;;3.50;1.00;;;;;;5088461;28;20446;-70
2022/12/10 11:06:00;;;;;;;11.40;6.93;;;3.20;99.90;;;;;;5086710;28;20454;-73
2022/12/10 11:08:31;;;;;;;11.27;6.70;;;3.30;1.00;;;;;;5073474;28;21226;-71
2022/12/10 11:11:03;;;;;;;12.43;8.07;;;3.50;99.90;;;;;;5077565;28;20474;-69
2022/12/10 11:13:31;;;;;;;13.30;7.10;;;3.50;1.00;;;;;;5079080;28;20446;-71
2022/12/10 11:16:03;;;;;;;17.13;8.30;;;3.40;1.00;;;;;;5080373;28;20445;-71
2022/12/10 11:18:36;;;;;;;11.20;6.10;;;3.50;99.90;;;;;;5083618;28;20468;-69
2022/12/10 11:21:06;;;;;;;17.80;10.27;;;3.60;1.00;;;;;;5070529;28;20544;-70
2022/12/10 11:23:39;;;;;;;10.47;7.17;;;3.70;1.00;;;;;;5086133;28;20449;-70
2022/12/10 11:26:22;;;;;;;14.77;8.10;;;3.40;79.90;;;;;;5081942;28;20445;-71
2022/12/10 11:28:58;;;;;;;14.40;7.27;;;3.50;99.90;;;;;;5089269;28;20456;-68
2022/12/10 11:31:42;;;;;;;9.67;6.83;;;3.50;1.00;;;;;;5079948;28;20929;-70
2022/12/10 11:34:16;;;;;;;12.13;6.63;;;3.30;1.00;;;;;;5081205;28;20448;-70
2022/12/10 11:36:50;;;;;;;9.40;7.07;;;3.40;99.90;;;;;;5083379;28;20437;-70
2022/12/10 11:39:38;;;;;;;13.67;6.30;;;3.50;92.30;;;;;;5081720;28;20977;-70
2022/12/10 11:42:15;;;;;;;10.33;6.10;;;3.60;61.30;;;;;;5071926;28;20648;-70
2022/12/10 11:44:48;;;;;;;15.13;8.23;;;3.70;1.00;;;;;;5085913;28;20444;-70
2022/12/10 11:47:31;;;;;;;11.83;6.33;;;3.80;99.90;;;;;;5091068;28;20472;-69
2022/12/10 11:50:12;;;;;;;11.80;6.73;;;3.90;99.90;;;;;;5089111;28;20836;-71
2022/12/10 11:52:52;;;;;;;10.50;6.53;;;4.00;1.00;;;;;;5084628;28;20471;-71
2022/12/10 11:55:30;;;;;;;13.23;6.60;;;4.00;1.00;;;;;;5089694;28;20457;-69
2022/12/10 11:58:18;;;;;;;9.80;6.60;;;4.00;1.00;;;;;;5081445;28;20448;-71
2022/12/10 12:00:58;;;;;;;8.93;6.40;;;3.90;99.90;;;;;;5090024;28;20461;-69
2022/12/10 12:03:41;;;;;;;12.67;7.30;;;3.80;99.90;;;;;;5080835;28;20444;-70
2022/12/10 12:06:32;;;;;;;10.40;5.70;;;4.00;99.90;;;;;;5082713;28;21133;-70
2022/12/10 12:09:04;;;;;;;13.70;8.23;;;4.00;99.90;;;;;;5079769;28;20512;-71
2022/12/10 12:11:49;;;;;;;9.57;5.30;;;3.90;99.90;;;;;;5083399;28;20443;-70
2022/12/10 12:14:23;;;;;;;9.67;5.50;;;4.10;99.90;;;;;;5087340;28;20452;-70
2022/12/10 12:16:59;;;;;;;11.20;5.77;;;3.90;99.90;;;;;;5084150;28;20450;-69
2022/12/10 12:19:35;;;;;;;10.80;6.37;;;4.00;1.00;;;;;;5083599;28;20474;-69
2022/12/10 12:22:08;;;;;;;10.63;8.00;;;4.00;1.00;;;;;;5088018;28;20441;-72
2022/12/10 12:24:38;;;;;;;8.83;5.53;;;4.10;1.00;;;;;;5081797;28;20820;-70
2022/12/10 12:27:14;;;;;;;8.37;6.67;;;4.00;99.90;;;;;;5089340;28;20445;-70
2022/12/10 12:29:46;;;;;;;15.00;8.00;;;4.20;1.00;;;;;;5089333;28;20792;-69
2022/12/10 12:32:18;;;;;;;14.53;6.90;;;4.20;1.00;;;;;;5087850;28;20444;-70
2022/12/10 12:34:51;;;;;;;11.43;6.50;;;4.30;1.00;;;;;;5084711;28;20834;-67
2022/12/10 12:37:23;;;;;;;14.73;9.23;;;4.30;99.90;;;;;;5077560;28;20925;-70
2022/12/10 12:39:59;;;;;;;11.40;7.37;;;4.30;1.00;;;;;;5089482;28;20482;-70
2022/12/10 12:42:31;;;;;;;14.47;7.00;;;4.20;1.00;;;;;;5088455;28;20537;-70
2022/12/10 12:45:03;;;;;;;11.17;7.20;;;4.20;99.90;;;;;;5089042;28;20437;-70
2022/12/10 12:47:37;;;;;;;13.87;7.13;;;4.30;99.90;;;;;;5082618;28;20450;-71
2022/12/10 12:50:19;;;;;;;14.60;7.37;;;4.10;99.90;;;;;;5073875;28;20479;-71
2022/12/10 12:52:51;;;;;;;12.23;7.57;;;3.90;99.90;;;;;;5085451;28;20445;-68
2022/12/10 12:55:23;;;;;;;12.90;6.20;;;4.20;99.90;;;;;;5087673;28;20550;-70
2022/12/10 12:57:55;;;;;;;7.93;5.73;;;4.10;99.90;;;;;;5078774;28;20526;-71
2022/12/10 13:00:23;;;;;;;10.30;7.13;;;4.10;1.00;;;;;;5072817;28;20471;-71
2022/12/10 13:02:59;;;;;;;14.10;8.63;;;4.00;1.00;;;;;;5088205;28;20454;-71
2022/12/10 13:05:29;;;;;;;16.90;9.10;;;;;;;;;;5088680;28;20452;-71
2022/12/10 13:08:15;;;;;;;11.43;6.30;;;;;;;;;;5085663;28;20471;-70
2022/12/10 13:10:46;;;;;;;10.43;7.13;;;;;;;;;;5088910;28;20792;-71
2022/12/10 13:13:24;;;;;;;10.33;6.13;;;;;;;;;;5075724;28;20674;-71
2022/12/10 13:15:51;;;;;;;11.50;6.70;;;;;;;;;;5072789;28;20447;-71
2022/12/10 13:18:21;;;;;;;11.17;7.10;;;;;;;;;;5087859;28;20448;-71